createdAt,value
2018-02-08T00:02:14.528Z,69.70
2018-02-08T00:04:40.900Z,67.33
2018-02-08T00:07:07.250Z,74.50
2018-02-08T00:09:35.086Z,73.10
2018-02-08T00:12:01.446Z,69.27
2018-02-08T00:14:27.813Z,71.83
2018-02-08T00:16:54.178Z,69.47
2018-02-08T00:19:20.541Z,74.13
2018-02-08T00:21:46.904Z,68.20
2018-02-08T00:24:14.002Z,65.20
2018-02-08T00:26:41.104Z,68.97
2018-02-08T00:29:07.500Z,67.30
2018-02-08T00:31:33.863Z,69.43
2018-02-08T00:34:00.968Z,71.53
2018-02-08T00:36:27.371Z,76.37
2018-02-08T00:38:53.752Z,66.23
2018-02-08T00:41:20.170Z,67.40
2018-02-08T00:43:46.545Z,71.00
2018-02-08T00:46:12.902Z,68.40
2018-02-08T00:48:39.262Z,74.90
2018-02-08T00:51:05.617Z,67.77
2018-02-08T00:53:32.722Z,77.90
2018-02-08T00:55:59.079Z,65.80
2018-02-08T00:58:25.450Z,73.43
2018-02-08T01:00:51.806Z,65.83
2018-02-08T01:03:18.149Z,62.37
2018-02-08T01:05:44.547Z,65.77
2018-02-08T01:08:10.915Z,64.47
2018-02-08T01:10:37.288Z,65.27
2018-02-08T01:13:04.378Z,61.23
2018-02-08T01:15:30.751Z,58.57
2018-02-08T01:17:57.118Z,65.13
2018-02-08T01:20:23.486Z,59.27
2018-02-08T01:22:49.858Z,65.67
2018-02-08T01:25:16.945Z,56.57
2018-02-08T01:27:43.302Z,55.00
2018-02-08T01:30:09.710Z,60.43
2018-02-08T01:32:36.086Z,60.10
2018-02-08T01:35:02.465Z,55.93
2018-02-08T01:37:28.822Z,59.00
2018-02-08T01:39:55.190Z,59.50
2018-02-08T01:42:21.542Z,62.00
2018-02-08T01:44:47.904Z,55.77
2018-02-08T01:47:14.264Z,61.27
2018-02-08T01:49:44.648Z,61.00
2018-02-08T01:52:10.997Z,63.77
2018-02-08T01:54:37.470Z,54.03
2018-02-08T01:57:04.584Z,57.73
2018-02-08T01:59:30.954Z,63.40
2018-02-08T02:01:58.058Z,61.80
2018-02-08T02:04:24.418Z,59.07
2018-02-08T02:06:50.778Z,61.07
2018-02-08T02:09:17.886Z,57.93
2018-02-08T02:11:44.266Z,67.83
2018-02-08T02:14:10.644Z,61.33
2018-02-08T02:16:37.023Z,59.63
2018-02-08T02:19:04.210Z,68.97
2018-02-08T02:21:30.565Z,68.33
2018-02-08T02:23:56.964Z,65.30
2018-02-08T02:26:23.314Z,68.07
2018-02-08T02:28:49.683Z,64.20
2018-02-08T02:31:16.818Z,68.00
2018-02-08T02:33:43.195Z,64.93
2018-02-08T02:36:09.584Z,64.40
2018-02-08T02:38:35.951Z,66.43
2018-02-08T02:41:02.322Z,65.43
2018-02-08T02:43:28.692Z,72.57
2018-02-08T02:45:55.799Z,71.67
2018-02-08T02:48:22.177Z,73.63
2018-02-08T02:50:49.289Z,77.37
2018-02-08T02:53:15.638Z,71.63
2018-02-08T02:55:42.055Z,69.97
2018-02-08T02:58:08.436Z,76.40
2018-02-08T03:00:34.855Z,78.50
2018-02-08T03:03:01.944Z,74.70
2018-02-08T03:05:28.296Z,70.63
2018-02-08T03:07:54.641Z,73.10
2018-02-08T03:10:21.008Z,75.20
2018-02-08T03:12:47.400Z,74.00
2018-02-08T03:15:13.766Z,79.43
2018-02-08T03:17:40.879Z,86.30
2018-02-08T03:20:07.251Z,75.23
2018-02-08T03:22:33.614Z,73.97
2018-02-08T03:25:00.022Z,74.63
2018-02-08T03:27:26.413Z,73.80
2018-02-08T03:29:52.823Z,76.87
2018-02-08T03:32:19.239Z,69.73
2018-02-08T03:34:45.643Z,78.23
2018-02-08T03:37:12.022Z,83.60
2018-02-08T03:39:38.409Z,82.47
2018-02-08T03:42:05.508Z,77.47
2018-02-08T03:44:31.889Z,84.00
2018-02-08T03:46:58.287Z,74.97
2018-02-08T03:49:24.649Z,83.50
2018-02-08T03:51:51.747Z,87.57
2018-02-08T03:54:18.129Z,80.43
2018-02-08T03:56:45.227Z,84.87
2018-02-08T03:59:11.587Z,81.97
2018-02-08T04:01:37.961Z,70.13
2018-02-08T04:04:04.427Z,73.47
2018-02-08T04:06:30.826Z,81.73
2018-02-08T04:08:57.255Z,74.40
2018-02-08T04:11:23.621Z,92.83
2018-02-08T04:13:49.996Z,82.37
2018-02-08T04:16:17.101Z,86.10
2018-02-08T04:18:43.467Z,78.83
2018-02-08T04:21:10.550Z,85.77
2018-02-08T04:23:36.909Z,114.00
2018-02-08T04:26:03.312Z,75.73
2018-02-08T04:28:29.703Z,87.20
2018-02-08T04:30:56.799Z,100.93
2018-02-08T04:33:23.147Z,89.40
2018-02-08T04:35:49.513Z,93.60
2018-02-08T04:38:16.646Z,76.33
2018-02-08T04:40:55.249Z,75.50
2018-02-08T04:43:33.883Z,75.27
2018-02-08T04:46:12.506Z,78.33
2018-02-08T04:48:38.885Z,70.23
2018-02-08T04:51:05.240Z,84.70
2018-02-08T04:53:31.636Z,81.00
2018-02-08T04:55:58.038Z,78.03
2018-02-08T04:58:24.401Z,75.40
2018-02-08T05:00:50.754Z,84.97
2018-02-08T05:03:17.131Z,78.50
2018-02-08T05:05:44.344Z,86.63
2018-02-08T05:08:10.719Z,80.57
2018-02-08T05:10:37.830Z,80.77
2018-02-08T05:13:04.190Z,85.33
2018-02-08T05:15:30.557Z,79.60
2018-02-08T05:17:57.652Z,86.60
2018-02-08T05:20:24.037Z,80.83
2018-02-08T05:22:50.389Z,89.27
2018-02-08T05:25:16.813Z,96.37
2018-02-08T05:27:43.175Z,90.17
2018-02-08T05:30:09.541Z,76.77
2018-02-08T05:32:36.638Z,83.13
2018-02-08T05:35:02.997Z,77.13
2018-02-08T05:37:30.105Z,98.53
2018-02-08T05:39:56.457Z,94.87
2018-02-08T05:42:22.818Z,85.93
2018-02-08T05:44:49.164Z,90.63
2018-02-08T05:47:16.245Z,89.27
2018-02-08T05:49:42.613Z,91.80
2018-02-08T05:52:08.978Z,93.87
2018-02-08T05:54:36.115Z,101.93
2018-02-08T05:57:02.476Z,101.53
2018-02-08T05:59:28.825Z,106.37
2018-02-08T06:01:55.198Z,102.53
2018-02-08T06:04:21.566Z,107.03
2018-02-08T06:06:48.733Z,97.83
2018-02-08T06:09:15.114Z,115.70
2018-02-08T06:11:41.481Z,116.40
2018-02-08T06:14:08.579Z,110.33
2018-02-08T06:16:34.936Z,113.83
2018-02-08T06:19:01.297Z,104.87
2018-02-08T06:21:27.666Z,96.43
2018-02-08T06:23:54.022Z,104.30
2018-02-08T06:26:20.406Z,115.33
2018-02-08T06:28:46.760Z,118.93
2018-02-08T06:31:13.126Z,101.00
2018-02-08T06:33:40.225Z,113.27
2018-02-08T06:36:06.599Z,111.00
2018-02-08T06:38:33.706Z,113.93
2018-02-08T06:41:00.101Z,109.70
2018-02-08T06:43:27.202Z,111.13
2018-02-08T06:45:53.590Z,99.90
2018-02-08T06:48:19.967Z,107.40
2018-02-08T06:50:46.334Z,94.13
2018-02-08T06:53:13.451Z,99.50
2018-02-08T06:55:39.834Z,94.57
2018-02-08T06:58:06.225Z,100.23
2018-02-08T07:00:32.586Z,112.50
2018-02-08T07:02:58.963Z,96.60
2018-02-08T07:05:25.349Z,102.20
2018-02-08T07:07:51.810Z,112.20
2018-02-08T07:10:18.214Z,93.33
2018-02-08T07:12:45.316Z,103.63
2018-02-08T07:15:11.685Z,106.90
2018-02-08T07:17:38.777Z,108.47
2018-02-08T07:20:05.164Z,111.93
2018-02-08T07:22:32.269Z,96.77
2018-02-08T07:24:58.622Z,108.07
2018-02-08T07:27:24.999Z,107.53
2018-02-08T07:29:51.387Z,96.70
2018-02-08T07:32:17.715Z,92.90
2018-02-08T07:34:44.134Z,104.70
2018-02-08T07:37:10.492Z,108.43
2018-02-08T07:39:37.616Z,87.20
2018-02-08T07:42:05.476Z,93.40
2018-02-08T07:44:31.851Z,93.20
2018-02-08T07:47:05.149Z,106.00
2018-02-08T07:49:32.275Z,94.60
2018-02-08T07:51:58.646Z,88.03
2018-02-08T07:54:25.006Z,98.30
2018-02-08T07:56:51.365Z,102.80
2018-02-08T07:59:19.243Z,98.13
2018-02-08T08:01:46.365Z,87.47
2018-02-08T08:04:12.751Z,95.10
2018-02-08T08:06:39.116Z,98.33
2018-02-08T08:09:07.026Z,103.60
2018-02-08T08:11:33.387Z,112.30
2018-02-08T08:13:59.753Z,105.73
2018-02-08T08:16:26.098Z,104.70
2018-02-08T08:18:52.528Z,117.77
2018-02-08T08:21:18.932Z,101.80
2018-02-08T08:23:45.320Z,98.97
2018-02-08T08:26:12.435Z,105.53
2018-02-08T08:28:38.790Z,92.00
2018-02-08T08:31:05.873Z,93.00
2018-02-08T08:33:32.223Z,103.87
2018-02-08T08:35:58.580Z,102.43
2018-02-08T08:38:26.642Z,100.72
2018-02-08T08:40:53.015Z,115.13
2018-02-08T08:43:20.105Z,107.73
2018-02-08T08:45:46.497Z,114.47
2018-02-08T08:48:12.912Z,102.20
2018-02-08T08:50:40.051Z,95.83
2018-02-08T08:53:06.453Z,104.50
2018-02-08T08:55:32.857Z,101.63
2018-02-08T08:57:59.210Z,111.83
2018-02-08T09:00:25.583Z,104.60
2018-02-08T09:02:52.707Z,97.07
2018-02-08T09:05:19.059Z,104.20
2018-02-08T09:07:45.478Z,107.87
2018-02-08T09:10:11.886Z,104.57
2018-02-08T09:12:38.322Z,97.10
2018-02-08T09:15:04.697Z,114.00
2018-02-08T09:17:31.058Z,103.33
2018-02-08T09:19:58.162Z,113.77
2018-02-08T09:22:24.577Z,124.13
2018-02-08T09:24:50.947Z,108.07
2018-02-08T09:27:18.118Z,112.77
2018-02-08T09:29:44.685Z,116.20
2018-02-08T09:32:11.075Z,114.17
2018-02-08T09:34:38.178Z,122.73
2018-02-08T09:37:04.572Z,116.57
2018-02-08T09:39:30.980Z,128.00
2018-02-08T09:41:57.360Z,122.50
2018-02-08T09:44:23.790Z,122.03
2018-02-08T09:46:50.147Z,116.70
2018-02-08T09:49:16.563Z,117.67
2018-02-08T09:51:42.941Z,113.27
2018-02-08T09:54:10.059Z,111.43
2018-02-08T09:56:36.417Z,111.70
2018-02-08T09:59:03.533Z,116.40
2018-02-08T10:01:29.956Z,116.27
2018-02-08T10:03:56.763Z,122.10
2018-02-08T10:06:23.188Z,117.10
2018-02-08T10:08:49.554Z,120.93
2018-02-08T10:11:15.940Z,137.40
2018-02-08T10:13:43.054Z,109.63
2018-02-08T10:16:09.518Z,113.63
2018-02-08T10:18:36.736Z,125.83
2018-02-08T10:21:03.126Z,119.57
2018-02-08T10:23:29.493Z,122.33
2018-02-08T10:25:55.866Z,123.90
2018-02-08T10:28:23.007Z,129.40
2018-02-08T10:30:50.306Z,125.87
2018-02-08T10:33:16.704Z,122.63
2018-02-08T10:35:43.809Z,128.67
2018-02-08T10:38:10.175Z,113.20
2018-02-08T10:40:36.568Z,114.50
2018-02-08T10:43:02.938Z,102.87
2018-02-08T10:45:30.095Z,105.30
2018-02-08T10:47:57.308Z,104.80
2018-02-08T10:50:23.692Z,95.83
2018-02-08T10:52:50.058Z,97.20
2018-02-08T10:55:16.454Z,97.17
2018-02-08T10:57:43.246Z,87.63
2018-02-08T11:00:09.607Z,114.43
2018-02-08T11:02:36.004Z,122.10
2018-02-08T11:05:02.389Z,104.60
2018-02-08T11:07:29.487Z,103.23
2018-02-08T11:09:55.868Z,101.70
2018-02-08T11:12:22.259Z,107.30
2018-02-08T11:14:48.623Z,106.00
2018-02-08T11:17:15.770Z,113.83
2018-02-08T11:19:42.925Z,108.37
2018-02-08T11:22:09.296Z,121.77
2018-02-08T11:24:35.704Z,118.47
2018-02-08T11:27:02.091Z,125.30
2018-02-08T11:29:28.531Z,119.20
2018-02-08T11:31:55.683Z,97.53
2018-02-08T11:34:22.049Z,104.00
2018-02-08T11:36:48.439Z,104.53
2018-02-08T11:39:14.864Z,113.43
2018-02-08T11:41:41.240Z,105.30
2018-02-08T11:44:07.597Z,111.07
2018-02-08T11:46:33.951Z,112.67
2018-02-08T11:49:01.132Z,106.73
2018-02-08T11:51:27.536Z,107.83
2018-02-08T11:53:53.895Z,110.77
2018-02-08T11:56:20.982Z,127.23
2018-02-08T11:58:47.326Z,120.83
2018-02-08T12:01:13.709Z,111.83
2018-02-08T12:03:40.083Z,116.50
2018-02-08T12:06:06.436Z,112.20
2018-02-08T12:08:32.801Z,116.70
2018-02-08T12:10:59.918Z,124.40
2018-02-08T12:13:26.287Z,118.73
2018-02-08T12:15:53.384Z,122.43
2018-02-08T12:18:19.748Z,116.40
2018-02-08T12:20:46.913Z,121.50
2018-02-08T12:23:14.010Z,126.43
2018-02-08T12:25:40.392Z,127.43
2018-02-08T12:28:07.487Z,128.67
2018-02-08T12:30:33.891Z,123.63
2018-02-08T12:33:00.991Z,115.50
2018-02-08T12:35:27.463Z,122.20
2018-02-08T12:37:53.863Z,123.33
2018-02-08T12:40:20.246Z,124.60
2018-02-08T12:42:46.645Z,118.63
2018-02-08T12:45:13.747Z,126.20
2018-02-08T12:47:40.091Z,125.63
2018-02-08T12:50:06.485Z,123.67
2018-02-08T12:52:32.843Z,122.27
2018-02-08T12:54:59.969Z,131.93
2018-02-08T12:57:26.344Z,134.07
2018-02-08T12:59:52.706Z,116.57
2018-02-08T13:02:19.837Z,119.20
2018-02-08T13:04:46.986Z,121.90
2018-02-08T13:07:14.894Z,113.60
2018-02-08T13:09:41.241Z,116.87
2018-02-08T13:12:07.614Z,113.67
2018-02-08T13:14:33.988Z,114.57
2018-02-08T13:17:00.383Z,116.50
2018-02-08T13:19:27.506Z,111.50
2018-02-08T13:21:53.911Z,107.57
2018-02-08T13:24:20.279Z,119.07
2018-02-08T13:26:46.672Z,115.43
2018-02-08T13:29:13.040Z,133.53
2018-02-08T13:31:41.454Z,111.37
2018-02-08T13:34:08.588Z,117.60
2018-02-08T13:36:35.125Z,122.60
2018-02-08T13:39:02.345Z,133.30
2018-02-08T13:41:28.749Z,124.63
2018-02-08T13:43:55.119Z,121.30
2018-02-08T13:46:21.584Z,117.97
2018-02-08T13:48:49.765Z,119.67
2018-02-08T13:51:22.931Z,125.23
2018-02-08T13:53:56.212Z,118.50
2018-02-08T13:56:37.538Z,110.20
2018-02-08T13:59:09.961Z,113.87
2018-02-08T14:01:39.366Z,123.20
2018-02-08T14:04:05.755Z,121.93
2018-02-08T14:06:32.851Z,117.63
2018-02-08T14:08:59.229Z,111.87
2018-02-08T14:11:25.607Z,113.10
2018-02-08T14:13:51.965Z,114.53
2018-02-08T14:16:18.330Z,128.13
2018-02-08T14:18:44.690Z,111.93
2018-02-08T14:21:11.066Z,127.93
2018-02-08T14:23:38.207Z,122.83
2018-02-08T14:26:05.361Z,110.30
2018-02-08T14:28:32.524Z,109.87
2018-02-08T14:30:58.910Z,115.90
2018-02-08T14:33:25.270Z,107.60
2018-02-08T14:35:51.654Z,111.73
2018-02-08T14:38:18.026Z,128.17
2018-02-08T14:40:44.469Z,124.10
2018-02-08T14:43:11.626Z,121.03
2018-02-08T14:45:38.742Z,130.93
2018-02-08T14:48:05.149Z,130.10
2018-02-08T14:50:31.502Z,127.80
2018-02-08T14:52:57.871Z,125.67
2018-02-08T14:55:24.986Z,125.40
2018-02-08T14:57:51.338Z,113.20
2018-02-08T15:00:17.695Z,125.53
2018-02-08T15:02:44.793Z,116.97
2018-02-08T15:05:11.159Z,123.90
2018-02-08T15:07:38.262Z,128.30
2018-02-08T15:10:04.627Z,122.10
2018-02-08T15:12:30.984Z,114.37
2018-02-08T15:14:57.339Z,138.40
2018-02-08T15:17:23.729Z,134.83
2018-02-08T15:19:50.836Z,124.27
2018-02-08T15:22:17.197Z,124.20
2018-02-08T15:24:43.546Z,118.30
2018-02-08T15:27:10.698Z,120.50
2018-02-08T15:29:37.084Z,111.93
2018-02-08T15:32:03.466Z,120.33
2018-02-08T15:34:29.842Z,119.87
2018-02-08T15:36:56.207Z,109.60
2018-02-08T15:39:22.593Z,115.80
2018-02-08T15:41:49.014Z,128.83
2018-02-08T15:44:15.402Z,117.57
2018-02-08T15:46:42.495Z,103.07
2018-02-08T15:49:08.842Z,105.50
2018-02-08T15:51:35.212Z,118.23
2018-02-08T15:54:01.593Z,110.47
2018-02-08T15:56:27.975Z,110.70
2018-02-08T15:58:54.340Z,115.67
2018-02-08T16:01:21.441Z,118.43
2018-02-08T16:03:48.586Z,115.80
2018-02-08T16:06:14.953Z,110.20
2018-02-08T16:08:42.274Z,119.07
2018-02-08T16:11:08.660Z,124.07
2018-02-08T16:13:35.012Z,108.40
2018-02-08T16:16:01.387Z,123.10
2018-02-08T16:18:27.747Z,138.50
2018-02-08T16:20:54.841Z,134.07
2018-02-08T16:23:21.208Z,134.50
2018-02-08T16:25:48.319Z,127.50
2018-02-08T16:28:15.473Z,128.77
2018-02-08T16:30:41.858Z,127.57
2018-02-08T16:33:08.971Z,131.50
2018-02-08T16:35:35.357Z,135.80
2018-02-08T16:38:01.778Z,143.77
2018-02-08T16:40:28.164Z,147.60
2018-02-08T16:42:55.330Z,152.47
2018-02-08T16:45:22.450Z,148.03
2018-02-08T16:47:48.856Z,150.67
2018-02-08T16:50:15.233Z,146.93
2018-02-08T16:52:41.644Z,131.37
2018-02-08T16:55:08.002Z,131.27
2018-02-08T16:57:34.370Z,143.67
2018-02-08T17:00:00.724Z,142.20
2018-02-08T17:02:27.083Z,146.13
2018-02-08T17:04:53.472Z,135.30
2018-02-08T17:07:19.809Z,146.83
2018-02-08T17:09:46.215Z,142.83
2018-02-08T17:12:13.311Z,142.50
2018-02-08T17:14:39.682Z,130.07
2018-02-08T17:17:06.079Z,149.37
2018-02-08T17:19:32.430Z,150.37
2018-02-08T17:21:58.801Z,148.83
2018-02-08T17:24:25.207Z,164.60
2018-02-08T17:29:25.561Z,146.93
2018-02-08T17:31:52.710Z,144.87
2018-02-08T17:34:19.095Z,148.13
2018-02-08T17:36:45.493Z,156.57
2018-02-08T17:39:11.873Z,150.47
2018-02-08T17:41:38.290Z,143.67
2018-02-08T17:44:04.722Z,157.60
2018-02-08T17:46:31.158Z,149.60
2018-02-08T17:48:57.539Z,148.90
2018-02-08T17:51:23.898Z,145.77
2018-02-08T17:53:50.278Z,144.10
2018-02-08T17:56:17.402Z,152.60
2018-02-08T17:58:43.787Z,148.93
2018-02-08T18:01:10.179Z,155.73
2018-02-08T18:03:36.538Z,153.93
2018-02-08T18:06:03.688Z,145.40
2018-02-08T18:08:30.082Z,136.03
2018-02-08T18:10:57.206Z,152.93
2018-02-08T18:13:23.577Z,145.37
2018-02-08T18:15:50.701Z,154.63
2018-02-08T18:18:17.059Z,145.40
2018-02-08T18:20:44.940Z,140.73
2018-02-08T18:23:12.512Z,143.33
2018-02-08T18:25:39.640Z,146.23
2018-02-08T18:28:06.861Z,141.70
2018-02-08T18:30:33.247Z,150.50
2018-02-08T18:32:59.599Z,158.10
2018-02-08T18:35:25.976Z,138.13
2018-02-08T18:37:53.094Z,141.23
2018-02-08T18:40:19.496Z,145.23
2018-02-08T18:42:45.850Z,155.80
2018-02-08T18:47:48.220Z,156.40
2018-02-08T18:50:14.621Z,147.67
2018-02-08T18:52:41.091Z,140.03
2018-02-08T18:55:07.778Z,156.30
2018-02-08T18:57:34.268Z,161.13
2018-02-08T19:00:00.665Z,156.30
2018-02-08T19:02:27.786Z,147.03
2018-02-08T19:04:54.203Z,150.40
2018-02-08T19:07:20.550Z,148.90
2018-02-08T19:09:48.458Z,161.23
2018-02-08T19:12:14.810Z,171.87
2018-02-08T19:14:41.188Z,166.70
2018-02-08T19:17:07.630Z,156.73
2018-02-08T19:19:34.773Z,176.80
2018-02-08T19:22:01.173Z,172.47
2018-02-08T19:24:27.616Z,159.03
2018-02-08T19:26:53.967Z,155.30
2018-02-08T19:29:20.341Z,167.57
2018-02-08T19:31:46.714Z,162.27
2018-02-08T19:34:13.098Z,161.50
2018-02-08T19:36:39.489Z,157.03
2018-02-08T19:39:06.640Z,150.10
2018-02-08T19:41:33.087Z,151.43
2018-02-08T19:44:00.201Z,152.77
2018-02-08T19:46:26.590Z,133.67
2018-02-08T19:48:52.981Z,151.40
2018-02-08T19:51:19.345Z,153.77
2018-02-08T19:53:46.490Z,147.80
2018-02-08T19:56:13.618Z,149.03
2018-02-08T19:58:39.979Z,154.53
2018-02-08T20:01:07.437Z,149.13
2018-02-08T20:03:33.814Z,139.93
2018-02-08T20:06:00.208Z,152.73
2018-02-08T20:08:26.575Z,146.83
2018-02-08T20:10:52.921Z,150.77
2018-02-08T20:13:19.267Z,141.30
2018-02-08T20:15:45.657Z,151.57
2018-02-08T20:18:11.998Z,157.77
2018-02-08T20:20:38.392Z,144.97
2018-02-08T20:23:04.770Z,166.20
2018-02-08T20:25:46.968Z,154.53
2018-02-08T20:28:13.327Z,163.77
2018-02-08T20:30:39.715Z,163.37
2018-02-08T20:33:06.113Z,146.93
2018-02-08T20:35:32.490Z,158.73
2018-02-08T20:37:58.859Z,162.10
2018-02-08T20:40:35.067Z,163.13
2018-02-08T20:43:07.695Z,151.23
2018-02-08T20:45:34.050Z,170.77
2018-02-08T20:48:00.406Z,166.90
2018-02-08T20:50:26.770Z,175.97
2018-02-08T20:52:53.131Z,157.57
2018-02-08T20:55:20.383Z,155.37
2018-02-08T20:57:47.518Z,154.97
2018-02-08T21:00:13.939Z,164.70
2018-02-08T21:02:40.374Z,164.37
2018-02-08T21:05:06.981Z,152.53
2018-02-08T21:07:33.394Z,163.30
2018-02-08T21:09:59.780Z,161.17
2018-02-08T21:12:26.156Z,157.23
2018-02-08T21:14:52.544Z,176.00
2018-02-08T21:17:18.908Z,170.50
2018-02-08T21:19:46.004Z,179.10
2018-02-08T21:22:12.390Z,159.77
2018-02-08T21:24:38.755Z,171.80
2018-02-08T21:27:05.115Z,164.77
2018-02-08T21:29:31.461Z,167.20
2018-02-08T21:31:58.610Z,174.97
2018-02-08T21:34:25.741Z,181.83
2018-02-08T21:36:52.130Z,169.53
2018-02-08T21:39:18.506Z,158.57
2018-02-08T21:41:44.863Z,183.37
2018-02-08T21:44:11.974Z,178.60
2018-02-08T21:46:38.353Z,170.47
2018-02-08T21:49:04.715Z,163.53
2018-02-08T21:51:31.082Z,168.60
2018-02-08T21:53:57.429Z,166.27
2018-02-08T21:56:24.604Z,171.57
2018-02-08T21:58:50.974Z,168.83
2018-02-08T22:01:17.326Z,168.27
2018-02-08T22:03:43.690Z,178.87
2018-02-08T22:06:10.787Z,183.20
2018-02-08T22:08:37.159Z,180.87
2018-02-08T22:11:04.349Z,184.30
2018-02-08T22:13:30.714Z,178.53
2018-02-08T22:15:57.156Z,178.83
2018-02-08T22:18:24.289Z,183.80
2018-02-08T22:20:50.642Z,170.60
2018-02-08T22:23:17.746Z,176.93
2018-02-08T22:25:44.120Z,180.47
2018-02-08T22:28:10.474Z,183.73
2018-02-08T22:30:37.569Z,172.93
2018-02-08T22:33:03.926Z,187.03
2018-02-08T22:35:30.286Z,200.70
2018-02-08T22:37:56.649Z,174.13
2018-02-08T22:40:22.998Z,187.80
2018-02-08T22:42:49.362Z,178.27
2018-02-08T22:45:16.536Z,182.80
2018-02-08T22:47:42.935Z,188.43
2018-02-08T22:50:09.333Z,169.77
2018-02-08T22:52:35.738Z,182.73
2018-02-08T22:55:02.228Z,178.43
2018-02-08T22:57:29.424Z,172.67
2018-02-08T22:59:55.804Z,170.80
2018-02-08T23:02:22.230Z,175.67
2018-02-08T23:04:50.069Z,164.03
2018-02-08T23:07:16.436Z,170.13
2018-02-08T23:09:42.806Z,199.57
2018-02-08T23:12:09.172Z,191.00
2018-02-08T23:14:35.537Z,176.40
2018-02-08T23:17:03.485Z,196.13
2018-02-08T23:19:29.864Z,189.90
2018-02-08T23:21:57.107Z,186.70
2018-02-08T23:24:24.216Z,178.30
2018-02-08T23:26:50.582Z,183.70
2018-02-08T23:29:16.961Z,185.93
2018-02-08T23:31:43.356Z,186.50
2018-02-08T23:34:09.719Z,177.73
2018-02-08T23:36:36.062Z,202.77
2018-02-08T23:39:02.479Z,197.37
2018-02-08T23:41:28.849Z,163.70
2018-02-08T23:43:55.216Z,171.97
2018-02-08T23:46:22.315Z,163.83
2018-02-08T23:48:48.676Z,180.53
2018-02-08T23:51:15.104Z,171.93
2018-02-08T23:53:42.208Z,176.03
2018-02-08T23:56:08.576Z,192.50
2018-02-08T23:58:34.958Z,165.00
